createdAt,value
2024-03-01T00:00:35.266Z,100.00
2024-03-01T00:03:42.650Z,100.00
2024-03-01T00:06:51.026Z,100.00
2024-03-01T00:10:01.014Z,100.00
2024-03-01T00:13:09.107Z,100.00
2024-03-01T00:16:16.647Z,100.00
2024-03-01T00:19:24.720Z,100.00
2024-03-01T00:22:32.010Z,100.00
2024-03-01T00:25:42.843Z,100.00
2024-03-01T00:28:50.239Z,100.00
2024-03-01T00:31:58.282Z,100.00
2024-03-01T00:35:05.525Z,100.00
2024-03-01T00:38:13.643Z,100.00
2024-03-01T00:41:23.462Z,100.00
2024-03-01T00:44:31.521Z,100.00
2024-03-01T00:47:39.314Z,100.00
2024-03-01T00:50:47.722Z,100.00
2024-03-01T00:53:55.068Z,100.00
2024-03-01T00:57:05.724Z,100.00
2024-03-01T01:00:15.195Z,100.00
2024-03-01T01:03:23.193Z,100.00
2024-03-01T01:06:30.355Z,100.00
2024-03-01T01:09:38.368Z,100.00
2024-03-01T01:12:48.187Z,100.00
2024-03-01T01:15:56.662Z,100.00
2024-03-01T01:19:04.440Z,100.00
2024-03-01T01:22:12.791Z,100.00
2024-03-01T01:25:20.470Z,100.00
2024-03-01T01:28:31.312Z,100.00
2024-03-01T01:31:38.648Z,100.00
2024-03-01T01:34:46.778Z,100.00
2024-03-01T01:37:54.112Z,100.00
2024-03-01T01:41:02.247Z,100.00
2024-03-01T01:44:12.168Z,100.00
2024-03-01T01:47:20.405Z,100.00
2024-03-01T01:50:29.157Z,100.00
2024-03-01T01:53:38.794Z,100.00
2024-03-01T01:56:47.354Z,100.00
2024-03-01T01:59:59.949Z,100.00
2024-03-01T02:03:09.082Z,100.00
2024-03-01T02:06:17.162Z,100.00
2024-03-01T02:09:24.688Z,100.00
2024-03-01T02:12:32.827Z,100.00
2024-03-01T02:15:42.722Z,100.00
2024-03-01T02:18:52.477Z,100.00
2024-03-01T02:22:16.160Z,100.00
2024-03-01T02:25:27.208Z,100.00
2024-03-01T02:28:34.831Z,100.00
2024-03-01T02:31:42.824Z,100.00
2024-03-01T02:34:50.282Z,100.00
2024-03-01T02:37:58.361Z,100.00
2024-03-01T02:41:08.947Z,100.00
2024-03-01T02:44:17.466Z,100.00
2024-03-01T02:47:27.079Z,100.00
2024-03-01T02:50:35.131Z,100.00
2024-03-01T02:53:43.044Z,100.00
2024-03-01T02:56:52.822Z,100.00
2024-03-01T03:00:01.555Z,100.00
2024-03-01T03:03:08.984Z,100.00
2024-03-01T03:06:17.040Z,100.00
2024-03-01T03:09:24.207Z,100.00
2024-03-01T03:12:35.718Z,100.00
2024-03-01T03:15:43.500Z,100.00
2024-03-01T03:18:51.529Z,100.00
2024-03-01T03:21:58.758Z,100.00
2024-03-01T03:25:07.195Z,100.00
2024-03-01T03:28:21.350Z,100.00
2024-03-01T03:31:29.537Z,100.00
2024-03-01T03:34:37.329Z,100.00
2024-03-01T03:37:45.474Z,100.00
2024-03-01T03:40:52.719Z,100.00
2024-03-01T03:44:03.370Z,100.00
2024-03-01T03:47:11.112Z,100.00
2024-03-01T03:50:19.106Z,100.00
2024-03-01T03:53:26.297Z,100.00
2024-03-01T03:56:34.554Z,100.00
2024-03-01T03:59:47.218Z,100.00
2024-03-01T04:02:55.283Z,100.00
2024-03-01T04:06:02.514Z,100.00
2024-03-01T04:09:11.600Z,100.00
2024-03-01T04:12:18.752Z,100.00
2024-03-01T04:15:29.400Z,100.00
2024-03-01T04:18:37.391Z,100.00
2024-03-01T04:21:45.591Z,100.00
2024-03-01T04:24:55.912Z,100.00
2024-03-01T04:28:04.002Z,100.00
2024-03-01T04:31:13.847Z,100.00
2024-03-01T04:34:23.000Z,100.00
2024-03-01T04:37:30.254Z,100.00
2024-03-01T04:40:39.134Z,100.00
2024-03-01T04:43:46.725Z,100.00
2024-03-01T04:46:57.763Z,100.00
2024-03-01T04:50:06.537Z,100.00
2024-03-01T04:53:14.565Z,100.00
2024-03-01T04:56:21.825Z,100.00
2024-03-01T04:59:29.850Z,100.00
2024-03-01T05:02:39.721Z,100.00
2024-03-01T05:05:48.051Z,100.00
2024-03-01T05:08:55.234Z,100.00
2024-03-01T05:12:03.401Z,100.00
2024-03-01T05:15:13.762Z,100.00
2024-03-01T05:18:24.612Z,100.00
2024-03-01T05:21:31.936Z,100.00
2024-03-01T05:24:39.994Z,100.00
2024-03-01T05:27:49.761Z,100.00
2024-03-01T05:31:06.849Z,100.00
2024-03-01T05:34:24.258Z,100.00
2024-03-01T05:37:32.324Z,100.00
2024-03-01T05:40:46.944Z,100.00
2024-03-01T05:43:59.952Z,100.00
2024-03-01T05:47:07.641Z,100.00
2024-03-01T05:50:19.486Z,100.00
2024-03-01T05:53:27.719Z,100.00
2024-03-01T05:56:35.935Z,100.00
2024-03-01T05:59:43.123Z,100.00
2024-03-01T06:02:54.635Z,100.00
2024-03-01T06:06:06.196Z,100.00
2024-03-01T06:09:14.381Z,100.00
2024-03-01T06:12:21.665Z,100.00
2024-03-01T06:15:30.438Z,100.00
2024-03-01T06:18:37.968Z,100.00
2024-03-01T06:21:48.753Z,100.00
2024-03-01T06:24:56.047Z,100.00
2024-03-01T06:28:04.376Z,100.00
2024-03-01T06:31:11.787Z,100.00
2024-03-01T06:34:20.066Z,100.00
2024-03-01T06:37:29.994Z,100.00
2024-03-01T06:40:39.518Z,100.00
2024-03-01T06:43:46.926Z,100.00
2024-03-01T06:46:55.264Z,100.00
2024-03-01T06:50:02.696Z,100.00
2024-03-01T06:53:13.535Z,100.00
2024-03-01T06:56:20.960Z,100.00
2024-03-01T06:59:28.973Z,100.00
2024-03-01T07:02:36.336Z,100.00
2024-03-01T07:05:44.556Z,100.00
2024-03-01T07:08:54.593Z,100.00
2024-03-01T07:12:02.733Z,100.00
2024-03-01T07:15:12.161Z,100.00
2024-03-01T07:18:20.328Z,100.00
2024-03-01T07:21:27.557Z,100.00
2024-03-01T07:24:38.314Z,100.00
2024-03-01T07:27:45.525Z,100.00
2024-03-01T07:30:53.690Z,100.00
2024-03-01T07:34:01.368Z,100.00
2024-03-01T07:37:09.922Z,100.00
2024-03-01T07:40:20.305Z,100.00
2024-03-01T07:43:28.501Z,100.00
2024-03-01T07:46:36.957Z,100.00
2024-03-01T07:49:45.762Z,100.00
2024-03-01T07:52:53.003Z,100.00
2024-03-01T07:56:04.038Z,100.00
2024-03-01T07:59:12.477Z,100.00
2024-03-01T08:02:20.579Z,100.00
2024-03-01T08:05:27.827Z,100.00
2024-03-01T08:08:48.474Z,100.00
2024-03-01T08:11:58.844Z,100.00
2024-03-01T08:15:29.853Z,100.00
2024-03-01T08:18:42.470Z,100.00
2024-03-01T08:21:52.277Z,100.00
2024-03-01T08:25:01.964Z,100.00
2024-03-01T08:28:15.455Z,100.00
2024-03-01T08:31:30.649Z,100.00
2024-03-01T08:34:51.588Z,100.00
2024-03-01T08:37:58.824Z,99.32
2024-03-01T08:41:07.389Z,100.00
2024-03-01T08:45:00.843Z,99.25
2024-03-01T08:48:20.659Z,98.84
2024-03-01T08:51:29.203Z,100.00
2024-03-01T08:54:37.216Z,98.40
2024-03-01T08:57:44.814Z,98.46
2024-03-01T09:00:58.811Z,97.29
2024-03-01T09:04:17.372Z,95.22
2024-03-01T09:07:31.057Z,94.92
2024-03-01T09:10:39.611Z,92.37
2024-03-01T09:13:47.989Z,92.09
2024-03-01T09:16:58.035Z,91.79
2024-03-01T09:20:22.257Z,89.92
2024-03-01T09:23:29.674Z,89.53
2024-03-01T09:26:38.377Z,92.22
2024-03-01T09:29:48.388Z,91.75
2024-03-01T09:32:59.321Z,92.23
2024-03-01T09:36:09.268Z,90.03
2024-03-01T09:39:17.533Z,89.32
2024-03-01T09:42:50.756Z,88.25
2024-03-01T09:46:06.471Z,86.06
2024-03-01T09:49:43.188Z,83.34
2024-03-01T09:53:13.885Z,82.69
2024-03-01T09:56:36.271Z,81.28
2024-03-01T09:59:55.754Z,78.76
2024-03-01T10:03:21.950Z,79.09
2024-03-01T10:07:00.934Z,78.89
2024-03-01T10:10:44.130Z,79.47
2024-03-01T10:14:13.620Z,80.32
2024-03-01T10:17:46.966Z,79.98
2024-03-01T10:21:11.262Z,81.11
2024-03-01T10:24:44.557Z,79.66
2024-03-01T10:28:04.284Z,78.65
2024-03-01T10:31:31.817Z,78.04
2024-03-01T10:35:01.378Z,76.70
2024-03-01T10:38:20.388Z,76.98
2024-03-01T10:41:50.602Z,77.50
2024-03-01T10:45:12.980Z,76.54
2024-03-01T10:48:21.244Z,75.80
2024-03-01T10:51:36.991Z,75.86
2024-03-01T10:54:54.787Z,74.60
2024-03-01T10:58:26.656Z,73.87
2024-03-01T11:01:43.824Z,74.35
2024-03-01T11:05:09.049Z,74.84
2024-03-01T11:08:34.912Z,74.94
2024-03-01T11:11:59.308Z,74.93
2024-03-01T11:15:19.427Z,75.43
2024-03-01T11:18:34.530Z,75.89
2024-03-01T11:21:52.098Z,75.29
2024-03-01T11:25:11.407Z,75.48
2024-03-01T11:28:27.226Z,75.83
2024-03-01T11:31:45.559Z,76.15
2024-03-01T11:35:10.954Z,76.78
2024-03-01T11:38:36.138Z,77.07
2024-03-01T11:42:00.337Z,77.59
2024-03-01T11:45:21.384Z,78.05
2024-03-01T11:48:57.473Z,77.79
2024-03-01T11:52:34.924Z,77.35
2024-03-01T11:56:26.810Z,77.25
2024-03-01T12:00:26.786Z,78.08
2024-03-01T12:04:15.524Z,77.77
2024-03-01T12:07:52.413Z,77.78
2024-03-01T12:11:26.807Z,77.98
2024-03-01T12:14:43.752Z,78.10
2024-03-01T12:18:12.738Z,78.47
2024-03-01T12:21:40.401Z,78.23
2024-03-01T12:24:51.560Z,77.93
2024-03-01T12:28:30.169Z,77.80
2024-03-01T12:31:58.184Z,77.81
2024-03-01T12:35:27.949Z,76.56
2024-03-01T12:38:47.232Z,76.49
2024-03-01T12:42:11.506Z,76.51
2024-03-01T12:45:44.377Z,76.03
2024-03-01T12:49:17.527Z,76.24
2024-03-01T12:52:57.318Z,75.63
2024-03-01T12:56:29.441Z,75.43
2024-03-01T12:59:49.949Z,74.87
2024-03-01T13:03:14.542Z,74.96
2024-03-01T13:06:28.692Z,75.17
2024-03-01T13:09:48.085Z,75.53
2024-03-01T13:13:03.605Z,74.34
2024-03-01T13:16:19.734Z,74.58
2024-03-01T13:19:44.881Z,73.86
2024-03-01T13:23:11.594Z,73.33
2024-03-01T13:26:35.759Z,72.95
2024-03-01T13:29:52.021Z,72.25
2024-03-01T13:33:19.962Z,72.85
2024-03-01T13:36:33.417Z,73.59
2024-03-01T13:39:49.498Z,73.79
2024-03-01T13:43:07.518Z,73.73
2024-03-01T13:46:29.159Z,73.07
2024-03-01T13:49:43.246Z,73.57
2024-03-01T13:52:52.445Z,74.08
2024-03-01T13:56:02.445Z,75.25
2024-03-01T13:59:12.014Z,76.57
2024-03-01T14:02:21.958Z,77.48
2024-03-01T14:05:33.022Z,78.15
2024-03-01T14:08:41.364Z,79.31
2024-03-01T14:11:49.677Z,79.98
2024-03-01T14:14:56.912Z,81.54
2024-03-01T14:18:09.459Z,82.12
2024-03-01T14:21:18.426Z,82.85
2024-03-01T14:24:26.976Z,84.17
2024-03-01T14:27:34.527Z,84.12
2024-03-01T14:30:45.973Z,84.52
2024-03-01T14:34:08.692Z,85.09
2024-03-01T14:37:29.931Z,85.61
2024-03-01T14:40:37.910Z,87.03
2024-03-01T14:43:48.254Z,86.90
2024-03-01T14:46:55.524Z,88.00
2024-03-01T14:50:08.033Z,88.60
2024-03-01T14:53:37.390Z,89.49
2024-03-01T14:56:45.592Z,90.45
2024-03-01T14:59:52.855Z,90.87
2024-03-01T15:03:00.825Z,91.30
2024-03-01T15:06:10.878Z,91.04
2024-03-01T15:09:20.143Z,91.56
2024-03-01T15:12:27.385Z,90.91
2024-03-01T15:15:35.868Z,91.80
2024-03-01T15:18:45.268Z,92.69
2024-03-01T15:21:55.946Z,93.62
2024-03-01T15:25:12.255Z,93.61
2024-03-01T15:28:20.559Z,93.54
2024-03-01T15:31:28.124Z,93.29
2024-03-01T15:34:36.401Z,93.17
2024-03-01T15:37:46.322Z,93.60
2024-03-01T15:40:57.281Z,94.98
2024-03-01T15:44:04.484Z,95.73
2024-03-01T15:47:12.558Z,96.33
2024-03-01T15:50:20.248Z,97.74
2024-03-01T15:53:30.949Z,97.89
2024-03-01T15:56:38.454Z,98.63
2024-03-01T15:59:46.861Z,98.77
2024-03-01T16:02:54.489Z,99.09
2024-03-01T16:06:04.350Z,98.95
2024-03-01T16:09:16.624Z,99.22
2024-03-01T16:12:27.455Z,99.19
2024-03-01T16:15:35.236Z,99.75
2024-03-01T16:18:46.438Z,100.00
2024-03-01T16:21:56.589Z,100.00
2024-03-01T16:25:09.970Z,100.00
2024-03-01T16:28:28.413Z,100.00
2024-03-01T16:31:36.872Z,100.00
2024-03-01T16:34:44.436Z,100.00
2024-03-01T16:37:54.391Z,100.00
2024-03-01T16:41:08.785Z,100.00
2024-03-01T16:44:44.123Z,100.00
2024-03-01T16:47:51.872Z,100.00
2024-03-01T16:51:00.350Z,100.00
2024-03-01T16:54:22.328Z,100.00
2024-03-01T16:57:36.050Z,100.00
2024-03-01T17:00:43.493Z,100.00
2024-03-01T17:03:55.065Z,100.00
2024-03-01T17:07:05.107Z,100.00
2024-03-01T17:10:25.689Z,100.00
2024-03-01T17:13:36.959Z,100.00
2024-03-01T17:16:45.603Z,100.00
2024-03-01T17:19:53.310Z,100.00
2024-03-01T17:23:01.474Z,100.00
2024-03-01T17:26:08.785Z,100.00
2024-03-01T17:29:19.607Z,100.00
2024-03-01T17:32:26.893Z,100.00
2024-03-01T17:35:35.552Z,100.00
2024-03-01T17:38:42.872Z,100.00
2024-03-01T17:41:50.986Z,100.00
2024-03-01T17:45:00.931Z,100.00
2024-03-01T17:48:10.645Z,100.00
2024-03-01T17:51:18.149Z,100.00
2024-03-01T17:54:26.338Z,100.00
2024-03-01T17:57:33.672Z,100.00
2024-03-01T18:00:44.378Z,100.00
2024-03-01T18:03:51.632Z,100.00
2024-03-01T18:07:02.330Z,100.00
2024-03-01T18:10:12.494Z,100.00
2024-03-01T18:13:20.740Z,100.00
2024-03-01T18:16:30.593Z,100.00
2024-03-01T18:19:38.788Z,100.00
2024-03-01T18:22:46.158Z,100.00
2024-03-01T18:25:54.318Z,100.00
2024-03-01T18:29:01.710Z,100.00
2024-03-01T18:32:12.960Z,100.00
2024-03-01T18:35:20.222Z,100.00
2024-03-01T18:38:28.466Z,100.00
2024-03-01T18:41:35.705Z,100.00
2024-03-01T18:44:44.153Z,100.00
2024-03-01T18:47:54.674Z,100.00
2024-03-01T18:51:02.789Z,100.00
2024-03-01T18:54:15.347Z,100.00
2024-03-01T18:57:23.330Z,100.00
2024-03-01T19:00:33.766Z,100.00
2024-03-01T19:03:46.486Z,100.00
2024-03-01T19:06:53.790Z,100.00
2024-03-01T19:10:02.063Z,100.00
2024-03-01T19:13:10.210Z,100.00
2024-03-01T19:16:18.613Z,100.00
2024-03-01T19:19:28.538Z,100.00
2024-03-01T19:22:37.602Z,100.00
2024-03-01T19:25:47.577Z,100.00
2024-03-01T19:28:55.772Z,100.00
2024-03-01T19:32:03.105Z,100.00
2024-03-01T19:35:15.090Z,100.00
2024-03-01T19:38:23.530Z,100.00
2024-03-01T19:41:31.900Z,100.00
2024-03-01T19:44:39.462Z,100.00
2024-03-01T19:47:48.167Z,100.00
2024-03-01T19:50:58.367Z,100.00
2024-03-01T19:54:07.159Z,100.00
2024-03-01T19:57:14.610Z,100.00
2024-03-01T20:00:22.815Z,100.00
2024-03-01T20:03:30.089Z,100.00
2024-03-01T20:06:40.900Z,100.00
2024-03-01T20:09:48.692Z,100.00
2024-03-01T20:12:56.856Z,100.00
2024-03-01T20:16:19.170Z,100.00
2024-03-01T20:19:41.509Z,100.00
2024-03-01T20:22:52.274Z,100.00
2024-03-01T20:25:59.805Z,100.00
2024-03-01T20:29:07.952Z,100.00
2024-03-01T20:32:15.260Z,100.00
2024-03-01T20:35:23.288Z,100.00
2024-03-01T20:38:33.339Z,100.00
2024-03-01T20:41:41.498Z,100.00
2024-03-01T20:45:03.811Z,100.00
2024-03-01T20:48:26.036Z,100.00
2024-03-01T20:51:34.092Z,100.00
2024-03-01T20:54:44.031Z,100.00
2024-03-01T20:57:52.799Z,100.00
2024-03-01T21:01:01.802Z,100.00
2024-03-01T21:04:11.418Z,100.00
2024-03-01T21:07:19.032Z,100.00
2024-03-01T21:10:31.264Z,100.00
2024-03-01T21:13:38.555Z,100.00
2024-03-01T21:16:46.845Z,100.00
2024-03-01T21:20:11.722Z,100.00
2024-03-01T21:23:34.026Z,100.00
2024-03-01T21:26:44.783Z,100.00
2024-03-01T21:29:52.174Z,100.00
2024-03-01T21:33:02.477Z,100.00
2024-03-01T21:36:10.365Z,100.00
2024-03-01T21:39:18.575Z,100.00
2024-03-01T21:42:28.870Z,100.00
2024-03-01T21:45:37.085Z,100.00
2024-03-01T21:48:44.666Z,100.00
2024-03-01T21:51:52.823Z,100.00
2024-03-01T21:55:00.226Z,100.00
2024-03-01T21:58:11.143Z,100.00
2024-03-01T22:01:18.521Z,100.00
2024-03-01T22:04:26.634Z,100.00
2024-03-01T22:07:34.020Z,99.81
2024-03-01T22:10:42.220Z,99.62
2024-03-01T22:13:52.296Z,99.44
2024-03-01T22:17:00.572Z,99.72
2024-03-01T22:20:10.717Z,99.74
2024-03-01T22:23:19.668Z,99.89
2024-03-01T22:26:27.682Z,100.00
2024-03-01T22:29:39.052Z,99.49
2024-03-01T22:32:47.160Z,100.00
2024-03-01T22:35:55.528Z,100.00
2024-03-01T22:39:03.709Z,100.00
2024-03-01T22:42:13.651Z,100.00
2024-03-01T22:45:27.010Z,100.00
2024-03-01T22:48:36.925Z,100.00
2024-03-01T22:51:45.250Z,100.00
2024-03-01T22:54:56.858Z,100.00
2024-03-01T22:58:04.457Z,100.00
2024-03-01T23:01:27.034Z,100.00
2024-03-01T23:04:39.791Z,100.00
2024-03-01T23:07:48.212Z,100.00
2024-03-01T23:10:56.103Z,100.00
2024-03-01T23:14:05.178Z,100.00
2024-03-01T23:17:15.158Z,100.00
2024-03-01T23:20:37.337Z,100.00
2024-03-01T23:23:46.297Z,100.00
2024-03-01T23:26:58.461Z,100.00
2024-03-01T23:30:08.462Z,100.00
2024-03-01T23:33:18.489Z,100.00
2024-03-01T23:36:26.608Z,100.00
2024-03-01T23:39:34.087Z,100.00
2024-03-01T23:42:43.302Z,100.00
2024-03-01T23:45:50.745Z,100.00
2024-03-01T23:49:01.555Z,100.00
2024-03-01T23:52:09.561Z,100.00
2024-03-01T23:55:22.516Z,100.00
2024-03-01T23:58:30.036Z,100.00
